Terminal Aerodrome Forecast
Issued by NWS

Home | Current Version | Previous Version | Text Only | Print | Product List | Glossary On
Versions: 1 2 3 4 5 6 7 8 9 10 11
444
FTUS45 KABQ 100522
TAFSAF
TAF
KSAF 100522Z 1006/1106 VRB05KT P6SM SKC
     FM101100 01010KT P6SM SKC
     FM102030 25007KT P6SM SKC
     FM110200 34006KT P6SM SKC=

USA.gov is the U.S. government's official web portal to all federal, state and local government web resources and services.